sensor_id;sensor_type;location;lat;lon;timestamp;pressure;altitude;pressure_sealevel;temperature;humidity
72587;BME280;60621;49.576;11.024;2023-06-22T00:00:06;98529.34;;;20.55;74.41
72587;BME280;60621;49.576;11.024;2023-06-22T00:01:13;98527.59;;;20.49;74.72
72587;BME280;60621;49.576;11.024;2023-06-22T00:02:15;98518.16;;;20.40;74.78
72587;BME280;60621;49.576;11.024;2023-06-22T00:03:18;98519.13;;;20.30;75.21
72587;BME280;60621;49.576;11.024;2023-06-22T00:04:20;98512.75;;;20.24;75.70
72587;BME280;60621;49.576;11.024;2023-06-22T00:05:22;98512.41;;;20.22;75.52
72587;BME280;60621;49.576;11.024;2023-06-22T00:06:23;98528.75;;;20.28;75.78
72587;BME280;60621;49.576;11.024;2023-06-22T00:07:25;98520.25;;;20.33;75.66
72587;BME280;60621;49.576;11.024;2023-06-22T00:08:27;98522.75;;;20.40;75.41
72587;BME280;60621;49.576;11.024;2023-06-22T00:09:28;98517.13;;;20.54;74.94
72587;BME280;60621;49.576;11.024;2023-06-22T00:10:30;98520.34;;;20.65;74.14
72587;BME280;60621;49.576;11.024;2023-06-22T00:11:33;98518.13;;;20.60;73.98
72587;BME280;60621;49.576;11.024;2023-06-22T00:12:35;98519.41;;;20.56;74.59
72587;BME280;60621;49.576;11.024;2023-06-22T00:13:37;98520.91;;;20.57;74.40
72587;BME280;60621;49.576;11.024;2023-06-22T00:14:39;98527.44;;;20.56;74.58
72587;BME280;60621;49.576;11.024;2023-06-22T00:15:41;98522.50;;;20.54;74.17
72587;BME280;60621;49.576;11.024;2023-06-22T00:16:43;98519.66;;;20.61;74.45
72587;BME280;60621;49.576;11.024;2023-06-22T00:17:45;98517.66;;;20.65;74.01
72587;BME280;60621;49.576;11.024;2023-06-22T00:18:47;98513.97;;;20.59;74.20
72587;BME280;60621;49.576;11.024;2023-06-22T00:19:48;98520.06;;;20.60;74.04
72587;BME280;60621;49.576;11.024;2023-06-22T00:20:55;98517.75;;;20.62;74.26
72587;BME280;60621;49.576;11.024;2023-06-22T00:22:00;98522.03;;;20.76;73.72
72587;BME280;60621;49.576;11.024;2023-06-22T00:23:02;98524.97;;;20.81;73.29
72587;BME280;60621;49.576;11.024;2023-06-22T00:24:07;98523.88;;;20.79;73.19
72587;BME280;60621;49.576;11.024;2023-06-22T00:25:09;98524.78;;;20.72;73.30
72587;BME280;60621;49.576;11.024;2023-06-22T00:26:11;98526.84;;;20.84;72.96
72587;BME280;60621;49.576;11.024;2023-06-22T00:27:13;98521.47;;;20.84;72.28
72587;BME280;60621;49.576;11.024;2023-06-22T00:28:14;98522.28;;;20.81;72.88
72587;BME280;60621;49.576;11.024;2023-06-22T00:29:16;98524.16;;;20.84;72.72
72587;BME280;60621;49.576;11.024;2023-06-22T00:30:19;98525.41;;;20.80;72.98
72587;BME280;60621;49.576;11.024;2023-06-22T00:31:20;98535.81;;;20.94;72.42
72587;BME280;60621;49.576;11.024;2023-06-22T00:32:22;98530.78;;;20.96;71.89
72587;BME280;60621;49.576;11.024;2023-06-22T00:33:24;98530.25;;;20.85;72.31
72587;BME280;60621;49.576;11.024;2023-06-22T00:34:25;98531.91;;;20.79;72.58
72587;BME280;60621;49.576;11.024;2023-06-22T00:35:27;98535.94;;;20.70;72.96
72587;BME280;60621;49.576;11.024;2023-06-22T00:36:31;98543.22;;;20.70;73.09
72587;BME280;60621;49.576;11.024;2023-06-22T00:37:32;98547.41;;;20.71;73.15
72587;BME280;60621;49.576;11.024;2023-06-22T00:38:34;98550.97;;;20.64;73.24
72587;BME280;60621;49.576;11.024;2023-06-22T00:39:36;98542.75;;;20.55;73.71
72587;BME280;60621;49.576;11.024;2023-06-22T00:40:37;98544.88;;;20.64;73.44
72587;BME280;60621;49.576;11.024;2023-06-22T00:41:39;98546.88;;;20.60;73.00
72587;BME280;60621;49.576;11.024;2023-06-22T00:42:41;98553.81;;;20.57;73.40
72587;BME280;60621;49.576;11.024;2023-06-22T00:43:43;98557.38;;;20.51;73.71
72587;BME280;60621;49.576;11.024;2023-06-22T00:44:44;98555.75;;;20.37;73.92
72587;BME280;60621;49.576;11.024;2023-06-22T00:45:46;98560.06;;;20.31;74.98
72587;BME280;60621;49.576;11.024;2023-06-22T00:46:48;98562.63;;;20.38;74.45
72587;BME280;60621;49.576;11.024;2023-06-22T00:47:51;98559.25;;;20.54;73.79
72587;BME280;60621;49.576;11.024;2023-06-22T00:48:53;98565.56;;;20.63;73.32
72587;BME280;60621;49.576;11.024;2023-06-22T00:49:58;98565.81;;;20.69;73.01
72587;BME280;60621;49.576;11.024;2023-06-22T00:51:00;98564.56;;;20.74;72.79
72587;BME280;60621;49.576;11.024;2023-06-22T00:52:02;98576.22;;;20.67;72.76
72587;BME280;60621;49.576;11.024;2023-06-22T00:53:08;98571.00;;;20.60;73.29
72587;BME280;60621;49.576;11.024;2023-06-22T00:54:11;98571.56;;;20.51;73.43
72587;BME280;60621;49.576;11.024;2023-06-22T00:55:14;98574.41;;;20.60;73.44
72587;BME280;60621;49.576;11.024;2023-06-22T00:56:19;98576.81;;;20.75;72.83
72587;BME280;60621;49.576;11.024;2023-06-22T00:57:22;98569.59;;;20.71;72.64
72587;BME280;60621;49.576;11.024;2023-06-22T00:58:29;98574.28;;;20.67;72.67
72587;BME280;60621;49.576;11.024;2023-06-22T00:59:31;98575.19;;;20.61;72.84
72587;BME280;60621;49.576;11.024;2023-06-22T01:00:33;98579.22;;;20.69;72.65
72587;BME280;60621;49.576;11.024;2023-06-22T01:01:35;98571.53;;;20.71;72.52
72587;BME280;60621;49.576;11.024;2023-06-22T01:02:43;98562.56;;;20.61;72.74
72587;BME280;60621;49.576;11.024;2023-06-22T01:03:47;98564.28;;;20.52;73.23
72587;BME280;60621;49.576;11.024;2023-06-22T01:04:49;98563.09;;;20.33;73.79
72587;BME280;60621;49.576;11.024;2023-06-22T01:05:51;98562.94;;;20.20;74.76
72587;BME280;60621;49.576;11.024;2023-06-22T01:07:12;98564.59;;;20.34;74.48
72587;BME280;60621;49.576;11.024;2023-06-22T01:08:38;98553.25;;;20.26;74.59
72587;BME280;60621;49.576;11.024;2023-06-22T01:10:18;98547.97;;;20.03;75.34
72587;BME280;60621;49.576;11.024;2023-06-22T01:11:19;98550.44;;;19.93;75.92
72587;BME280;60621;49.576;11.024;2023-06-22T01:12:22;98543.72;;;19.85;76.19
72587;BME280;60621;49.576;11.024;2023-06-22T01:14:04;98524.00;;;19.76;76.72
72587;BME280;60621;49.576;11.024;2023-06-22T01:15:20;98522.72;;;19.60;77.51
72587;BME280;60621;49.576;11.024;2023-06-22T01:16:34;98513.56;;;19.61;77.29
72587;BME280;60621;49.576;11.024;2023-06-22T01:17:40;98511.66;;;19.58;77.02
72587;BME280;60621;49.576;11.024;2023-06-22T01:18:43;98499.91;;;19.52;77.57
72587;BME280;60621;49.576;11.024;2023-06-22T01:19:46;98499.03;;;19.59;77.45
72587;BME280;60621;49.576;11.024;2023-06-22T01:20:50;98490.56;;;19.64;77.12
72587;BME280;60621;49.576;11.024;2023-06-22T01:21:53;98486.78;;;19.61;76.80
72587;BME280;60621;49.576;11.024;2023-06-22T01:24:32;98475.34;;;19.61;76.58
72587;BME280;60621;49.576;11.024;2023-06-22T01:25:59;98471.81;;;19.40;77.14
72587;BME280;60621;49.576;11.024;2023-06-22T01:27:12;98471.53;;;19.35;77.48
72587;BME280;60621;49.576;11.024;2023-06-22T01:28:46;98462.84;;;19.07;78.61
72587;BME280;60621;49.576;11.024;2023-06-22T01:29:55;98463.53;;;19.11;78.50
72587;BME280;60621;49.576;11.024;2023-06-22T01:31:02;98461.03;;;19.01;78.91
72587;BME280;60621;49.576;11.024;2023-06-22T01:32:07;98460.09;;;19.11;78.23
72587;BME280;60621;49.576;11.024;2023-06-22T01:33:11;98460.38;;;19.16;78.60
72587;BME280;60621;49.576;11.024;2023-06-22T01:34:15;98466.84;;;19.19;78.31
72587;BME280;60621;49.576;11.024;2023-06-22T01:35:18;98459.16;;;19.21;78.35
72587;BME280;60621;49.576;11.024;2023-06-22T01:36:22;98449.66;;;19.20;78.14
72587;BME280;60621;49.576;11.024;2023-06-22T01:37:27;98457.66;;;19.20;78.32
72587;BME280;60621;49.576;11.024;2023-06-22T01:38:29;98456.16;;;19.19;78.11
72587;BME280;60621;49.576;11.024;2023-06-22T01:39:32;98459.16;;;19.21;78.34
72587;BME280;60621;49.576;11.024;2023-06-22T01:40:34;98465.63;;;19.24;78.13
72587;BME280;60621;49.576;11.024;2023-06-22T01:41:38;98470.00;;;19.37;77.86
72587;BME280;60621;49.576;11.024;2023-06-22T01:42:42;98465.72;;;19.63;77.01
72587;BME280;60621;49.576;11.024;2023-06-22T01:43:45;98472.19;;;19.86;75.57
72587;BME280;60621;49.576;11.024;2023-06-22T01:44:46;98472.94;;;19.86;75.09
72587;BME280;60621;49.576;11.024;2023-06-22T01:45:49;98480.63;;;19.84;75.54
72587;BME280;60621;49.576;11.024;2023-06-22T01:46:52;98485.31;;;19.80;75.70
72587;BME280;60621;49.576;11.024;2023-06-22T01:47:55;98488.09;;;19.93;75.41
72587;BME280;60621;49.576;11.024;2023-06-22T01:48:57;98486.06;;;20.01;74.81
72587;BME280;60621;49.576;11.024;2023-06-22T01:49:59;98492.91;;;20.02;74.54
72587;BME280;60621;49.576;11.024;2023-06-22T01:51:02;98494.34;;;20.06;74.21
72587;BME280;60621;49.576;11.024;2023-06-22T01:52:03;98491.75;;;20.03;74.18
72587;BME280;60621;49.576;11.024;2023-06-22T01:53:05;98491.00;;;20.02;74.05
72587;BME280;60621;49.576;11.024;2023-06-22T01:54:08;98493.28;;;20.04;74.01
72587;BME280;60621;49.576;11.024;2023-06-22T01:55:09;98488.72;;;20.01;74.00
72587;BME280;60621;49.576;11.024;2023-06-22T01:56:11;98487.78;;;19.91;74.45
72587;BME280;60621;49.576;11.024;2023-06-22T01:57:13;98485.03;;;19.94;74.57
72587;BME280;60621;49.576;11.024;2023-06-22T01:58:15;98494.41;;;20.03;74.29
72587;BME280;60621;49.576;11.024;2023-06-22T01:59:25;98493.59;;;20.06;73.95
72587;BME280;60621;49.576;11.024;2023-06-22T02:00:31;98495.03;;;20.10;73.69
72587;BME280;60621;49.576;11.024;2023-06-22T02:01:41;98497.25;;;20.15;73.53
72587;BME280;60621;49.576;11.024;2023-06-22T02:03:19;98500.41;;;20.10;73.36
72587;BME280;60621;49.576;11.024;2023-06-22T02:04:33;98501.75;;;19.99;73.78
72587;BME280;60621;49.576;11.024;2023-06-22T02:05:39;98509.03;;;19.98;74.19
72587;BME280;60621;49.576;11.024;2023-06-22T02:06:45;98506.66;;;20.04;73.82
72587;BME280;60621;49.576;11.024;2023-06-22T02:08:11;98505.69;;;19.94;74.18
72587;BME280;60621;49.576;11.024;2023-06-22T02:09:18;98516.84;;;19.89;74.38
72587;BME280;60621;49.576;11.024;2023-06-22T02:10:23;98518.66;;;19.95;74.21
72587;BME280;60621;49.576;11.024;2023-06-22T02:11:26;98526.34;;;19.93;74.12
72587;BME280;60621;49.576;11.024;2023-06-22T02:12:30;98525.28;;;19.67;74.79
72587;BME280;60621;49.576;11.024;2023-06-22T02:13:32;98519.13;;;19.47;76.01
72587;BME280;60621;49.576;11.024;2023-06-22T02:14:35;98524.25;;;19.38;76.56
72587;BME280;60621;49.576;11.024;2023-06-22T02:15:37;98526.69;;;19.29;76.98
72587;BME280;60621;49.576;11.024;2023-06-22T02:16:40;98523.13;;;19.35;76.86
72587;BME280;60621;49.576;11.024;2023-06-22T02:17:43;98522.84;;;19.30;76.53
72587;BME280;60621;49.576;11.024;2023-06-22T02:18:48;98515.50;;;19.10;77.02
72587;BME280;60621;49.576;11.024;2023-06-22T02:19:52;98515.25;;;19.01;77.47
72587;BME280;60621;49.576;11.024;2023-06-22T02:20:53;98511.59;;;18.91;77.90
72587;BME280;60621;49.576;11.024;2023-06-22T02:21:55;98508.50;;;18.93;78.02
72587;BME280;60621;49.576;11.024;2023-06-22T02:22:56;98506.66;;;18.90;77.85
72587;BME280;60621;49.576;11.024;2023-06-22T02:23:58;98513.53;;;18.87;77.75
72587;BME280;60621;49.576;11.024;2023-06-22T02:25:00;98513.22;;;18.85;78.42
72587;BME280;60621;49.576;11.024;2023-06-22T02:26:02;98507.03;;;18.88;78.26
72587;BME280;60621;49.576;11.024;2023-06-22T02:27:04;98504.56;;;19.01;77.83
72587;BME280;60621;49.576;11.024;2023-06-22T02:28:08;98505.09;;;19.16;77.20
72587;BME280;60621;49.576;11.024;2023-06-22T02:29:09;98497.44;;;19.18;77.27
72587;BME280;60621;49.576;11.024;2023-06-22T02:30:12;98497.88;;;19.13;77.22
72587;BME280;60621;49.576;11.024;2023-06-22T02:31:13;98494.28;;;19.00;77.71
72587;BME280;60621;49.576;11.024;2023-06-22T02:32:15;98505.34;;;18.98;78.43
72587;BME280;60621;49.576;11.024;2023-06-22T02:33:18;98511.19;;;19.16;77.72
72587;BME280;60621;49.576;11.024;2023-06-22T02:34:21;98516.13;;;19.41;76.82
72587;BME280;60621;49.576;11.024;2023-06-22T02:35:24;98523.53;;;19.57;75.70
72587;BME280;60621;49.576;11.024;2023-06-22T02:36:26;98526.19;;;19.61;75.51
72587;BME280;60621;49.576;11.024;2023-06-22T02:37:28;98531.53;;;19.61;75.19
72587;BME280;60621;49.576;11.024;2023-06-22T02:38:31;98538.88;;;19.53;75.64
72587;BME280;60621;49.576;11.024;2023-06-22T02:39:36;98543.38;;;19.60;75.15
72587;BME280;60621;49.576;11.024;2023-06-22T02:40:38;98553.56;;;19.68;74.72
72587;BME280;60621;49.576;11.024;2023-06-22T02:41:39;98569.50;;;19.76;74.82
72587;BME280;60621;49.576;11.024;2023-06-22T02:42:41;98586.78;;;19.71;74.24
72587;BME280;60621;49.576;11.024;2023-06-22T02:43:46;98602.25;;;19.60;74.69
72587;BME280;60621;49.576;11.024;2023-06-22T02:44:48;98618.72;;;19.55;75.17
72587;BME280;60621;49.576;11.024;2023-06-22T02:45:49;98645.94;;;19.50;75.50
72587;BME280;60621;49.576;11.024;2023-06-22T02:46:51;98668.22;;;19.43;76.10
72587;BME280;60621;49.576;11.024;2023-06-22T02:47:52;98675.94;;;19.37;76.21
72587;BME280;60621;49.576;11.024;2023-06-22T02:48:54;98689.00;;;19.32;76.58
72587;BME280;60621;49.576;11.024;2023-06-22T02:49:56;98689.97;;;19.18;77.69
72587;BME280;60621;49.576;11.024;2023-06-22T02:50:57;98693.84;;;19.13;78.71
72587;BME280;60621;49.576;11.024;2023-06-22T02:51:59;98688.13;;;19.11;79.44
72587;BME280;60621;49.576;11.024;2023-06-22T02:53:00;98689.78;;;19.02;80.09
72587;BME280;60621;49.576;11.024;2023-06-22T02:54:02;98673.44;;;18.96;80.92
72587;BME280;60621;49.576;11.024;2023-06-22T02:55:04;98673.44;;;18.96;80.98
72587;BME280;60621;49.576;11.024;2023-06-22T02:56:05;98672.25;;;18.97;81.43
72587;BME280;60621;49.576;11.024;2023-06-22T02:57:07;98676.41;;;19.02;81.66
72587;BME280;60621;49.576;11.024;2023-06-22T02:58:15;98664.63;;;18.99;81.65
72587;BME280;60621;49.576;11.024;2023-06-22T02:59:17;98666.44;;;19.06;81.72
72587;BME280;60621;49.576;11.024;2023-06-22T03:00:22;98658.44;;;19.02;81.74
72587;BME280;60621;49.576;11.024;2023-06-22T03:01:24;98663.00;;;19.05;81.78
72587;BME280;60621;49.576;11.024;2023-06-22T03:02:26;98649.22;;;19.07;81.42
72587;BME280;60621;49.576;11.024;2023-06-22T03:03:29;98644.25;;;19.09;81.52
72587;BME280;60621;49.576;11.024;2023-06-22T03:04:30;98651.44;;;19.12;81.38
72587;BME280;60621;49.576;11.024;2023-06-22T03:05:32;98654.03;;;19.19;81.45
72587;BME280;60621;49.576;11.024;2023-06-22T03:06:36;98656.31;;;19.21;81.08
72587;BME280;60621;49.576;11.024;2023-06-22T03:07:38;98650.91;;;19.24;81.11
72587;BME280;60621;49.576;11.024;2023-06-22T03:08:39;98657.69;;;19.32;80.74
72587;BME280;60621;49.576;11.024;2023-06-22T03:09:42;98652.69;;;19.34;80.74
72587;BME280;60621;49.576;11.024;2023-06-22T03:10:44;98651.09;;;19.37;80.79
72587;BME280;60621;49.576;11.024;2023-06-22T03:11:46;98644.94;;;19.40;80.42
72587;BME280;60621;49.576;11.024;2023-06-22T03:12:47;98637.28;;;19.42;80.17
72587;BME280;60621;49.576;11.024;2023-06-22T03:13:49;98641.50;;;19.39;80.16
72587;BME280;60621;49.576;11.024;2023-06-22T03:14:53;98643.44;;;19.39;80.16
72587;BME280;60621;49.576;11.024;2023-06-22T03:15:54;98628.84;;;19.43;80.01
72587;BME280;60621;49.576;11.024;2023-06-22T03:16:57;98626.97;;;19.40;80.19
72587;BME280;60621;49.576;11.024;2023-06-22T03:18:03;98628.94;;;19.36;80.44
72587;BME280;60621;49.576;11.024;2023-06-22T03:19:05;98624.75;;;19.35;80.43
72587;BME280;60621;49.576;11.024;2023-06-22T03:20:07;98623.25;;;19.34;80.40
72587;BME280;60621;49.576;11.024;2023-06-22T03:21:13;98620.56;;;19.34;80.22
72587;BME280;60621;49.576;11.024;2023-06-22T03:22:16;98625.16;;;19.34;80.41
72587;BME280;60621;49.576;11.024;2023-06-22T03:23:18;98616.44;;;19.30;80.67
72587;BME280;60621;49.576;11.024;2023-06-22T03:24:19;98617.56;;;19.32;80.55
72587;BME280;60621;49.576;11.024;2023-06-22T03:25:21;98610.75;;;19.28;80.46
72587;BME280;60621;49.576;11.024;2023-06-22T03:26:23;98619.19;;;19.23;80.27
72587;BME280;60621;49.576;11.024;2023-06-22T03:27:28;98612.81;;;19.16;80.78
72587;BME280;60621;49.576;11.024;2023-06-22T03:28:30;98607.81;;;19.18;81.06
72587;BME280;60621;49.576;11.024;2023-06-22T03:29:31;98611.34;;;19.12;80.73
72587;BME280;60621;49.576;11.024;2023-06-22T03:30:33;98614.72;;;19.16;81.15
72587;BME280;60621;49.576;11.024;2023-06-22T03:31:35;98605.06;;;19.22;81.07
72587;BME280;60621;49.576;11.024;2023-06-22T03:32:36;98616.41;;;19.33;80.54
72587;BME280;60621;49.576;11.024;2023-06-22T03:33:38;98605.28;;;19.35;80.14
72587;BME280;60621;49.576;11.024;2023-06-22T03:34:40;98598.53;;;19.27;80.54
72587;BME280;60621;49.576;11.024;2023-06-22T03:35:41;98594.47;;;19.18;80.60
72587;BME280;60621;49.576;11.024;2023-06-22T03:36:43;98588.28;;;19.22;80.84
72587;BME280;60621;49.576;11.024;2023-06-22T03:37:46;98589.03;;;19.22;80.47
72587;BME280;60621;49.576;11.024;2023-06-22T03:38:49;98596.59;;;19.27;80.57
72587;BME280;60621;49.576;11.024;2023-06-22T03:39:51;98593.91;;;19.27;80.25
72587;BME280;60621;49.576;11.024;2023-06-22T03:40:53;98599.97;;;19.31;80.57
72587;BME280;60621;49.576;11.024;2023-06-22T03:41:54;98587.44;;;19.28;80.23
72587;BME280;60621;49.576;11.024;2023-06-22T03:42:56;98580.63;;;19.24;80.52
72587;BME280;60621;49.576;11.024;2023-06-22T03:43:58;98569.19;;;19.23;80.37
72587;BME280;60621;49.576;11.024;2023-06-22T03:44:59;98574.81;;;19.29;79.84
72587;BME280;60621;49.576;11.024;2023-06-22T03:46:02;98569.47;;;19.29;79.96
72587;BME280;60621;49.576;11.024;2023-06-22T03:47:04;98578.59;;;19.31;79.81
72587;BME280;60621;49.576;11.024;2023-06-22T03:48:05;98582.97;;;19.45;79.42
72587;BME280;60621;49.576;11.024;2023-06-22T03:49:07;98585.25;;;19.47;78.98
72587;BME280;60621;49.576;11.024;2023-06-22T03:50:11;98575.44;;;19.36;79.62
72587;BME280;60621;49.576;11.024;2023-06-22T03:51:13;98556.72;;;19.36;79.08
72587;BME280;60621;49.576;11.024;2023-06-22T03:52:14;98549.28;;;19.24;79.18
72587;BME280;60621;49.576;11.024;2023-06-22T03:53:16;98547.06;;;19.19;79.51
72587;BME280;60621;49.576;11.024;2023-06-22T03:54:18;98562.28;;;19.22;79.67
72587;BME280;60621;49.576;11.024;2023-06-22T03:55:19;98561.41;;;19.32;79.53
72587;BME280;60621;49.576;11.024;2023-06-22T03:56:21;98561.72;;;19.34;79.33
72587;BME280;60621;49.576;11.024;2023-06-22T03:57:23;98570.94;;;19.33;79.59
72587;BME280;60621;49.576;11.024;2023-06-22T03:58:24;98552.75;;;19.21;79.82
72587;BME280;60621;49.576;11.024;2023-06-22T03:59:26;98549.47;;;19.13;80.18
72587;BME280;60621;49.576;11.024;2023-06-22T04:00:28;98544.78;;;19.17;80.02
72587;BME280;60621;49.576;11.024;2023-06-22T04:01:30;98540.59;;;19.16;79.81
72587;BME280;60621;49.576;11.024;2023-06-22T04:02:31;98542.56;;;19.12;80.41
72587;BME280;60621;49.576;11.024;2023-06-22T04:03:33;98541.03;;;19.15;80.28
72587;BME280;60621;49.576;11.024;2023-06-22T04:04:35;98557.06;;;19.15;80.43
72587;BME280;60621;49.576;11.024;2023-06-22T04:05:38;98547.63;;;19.07;80.78
72587;BME280;60621;49.576;11.024;2023-06-22T04:06:40;98541.66;;;18.99;81.03
72587;BME280;60621;49.576;11.024;2023-06-22T04:07:42;98531.00;;;18.96;81.68
72587;BME280;60621;49.576;11.024;2023-06-22T04:08:45;98516.88;;;18.95;81.33
72587;BME280;60621;49.576;11.024;2023-06-22T04:09:49;98510.47;;;18.89;81.68
72587;BME280;60621;49.576;11.024;2023-06-22T04:10:51;98510.63;;;18.78;82.27
72587;BME280;60621;49.576;11.024;2023-06-22T04:11:52;98501.81;;;18.81;82.32
72587;BME280;60621;49.576;11.024;2023-06-22T04:12:54;98508.94;;;18.88;82.27
72587;BME280;60621;49.576;11.024;2023-06-22T04:13:55;98502.75;;;18.95;81.69
72587;BME280;60621;49.576;11.024;2023-06-22T04:14:57;98505.69;;;19.04;81.29
72587;BME280;60621;49.576;11.024;2023-06-22T04:15:59;98513.63;;;19.07;81.18
72587;BME280;60621;49.576;11.024;2023-06-22T04:17:02;98510.19;;;19.07;81.03
72587;BME280;60621;49.576;11.024;2023-06-22T04:18:04;98512.78;;;19.14;80.73
72587;BME280;60621;49.576;11.024;2023-06-22T04:19:06;98507.31;;;19.21;80.52
72587;BME280;60621;49.576;11.024;2023-06-22T04:20:07;98511.59;;;19.15;80.48
72587;BME280;60621;49.576;11.024;2023-06-22T04:21:10;98506.22;;;19.18;80.61
72587;BME280;60621;49.576;11.024;2023-06-22T04:22:11;98498.53;;;19.21;80.08
72587;BME280;60621;49.576;11.024;2023-06-22T04:23:13;98496.97;;;19.23;80.37
72587;BME280;60621;49.576;11.024;2023-06-22T04:24:15;98493.50;;;19.23;80.31
72587;BME280;60621;49.576;11.024;2023-06-22T04:25:17;98490.84;;;19.23;80.06
72587;BME280;60621;49.576;11.024;2023-06-22T04:26:18;98491.25;;;19.21;80.15
72587;BME280;60621;49.576;11.024;2023-06-22T04:27:22;98481.59;;;19.27;80.20
72587;BME280;60621;49.576;11.024;2023-06-22T04:28:24;98483.19;;;19.25;80.01
72587;BME280;60621;49.576;11.024;2023-06-22T04:29:31;98486.63;;;19.25;80.18
72587;BME280;60621;49.576;11.024;2023-06-22T04:30:33;98487.25;;;19.33;79.83
72587;BME280;60621;49.576;11.024;2023-06-22T04:31:35;98486.09;;;19.34;79.54
72587;BME280;60621;49.576;11.024;2023-06-22T04:32:40;98484.50;;;19.36;79.95
72587;BME280;60621;49.576;11.024;2023-06-22T04:33:42;98491.25;;;19.44;80.01
72587;BME280;60621;49.576;11.024;2023-06-22T04:34:44;98488.09;;;19.50;79.72
72587;BME280;60621;49.576;11.024;2023-06-22T04:35:46;98488.63;;;19.41;79.03
72587;BME280;60621;49.576;11.024;2023-06-22T04:36:47;98476.00;;;19.41;79.35
72587;BME280;60621;49.576;11.024;2023-06-22T04:37:49;98475.19;;;19.44;79.01
72587;BME280;60621;49.576;11.024;2023-06-22T04:38:51;98472.34;;;19.32;79.37
72587;BME280;60621;49.576;11.024;2023-06-22T04:39:54;98472.03;;;19.30;79.75
72587;BME280;60621;49.576;11.024;2023-06-22T04:40:56;98477.94;;;19.41;79.54
72587;BME280;60621;49.576;11.024;2023-06-22T04:41:57;98472.94;;;19.43;79.49
72587;BME280;60621;49.576;11.024;2023-06-22T04:43:01;98470.41;;;19.56;78.99
72587;BME280;60621;49.576;11.024;2023-06-22T04:44:04;98480.59;;;19.64;78.62
72587;BME280;60621;49.576;11.024;2023-06-22T04:45:06;98481.56;;;19.74;78.31
72587;BME280;60621;49.576;11.024;2023-06-22T04:46:08;98475.13;;;19.91;77.86
72587;BME280;60621;49.576;11.024;2023-06-22T04:47:10;98484.00;;;20.08;76.93
72587;BME280;60621;49.576;11.024;2023-06-22T04:48:11;98472.50;;;20.08;76.64
72587;BME280;60621;49.576;11.024;2023-06-22T04:49:17;98470.91;;;19.94;77.32
72587;BME280;60621;49.576;11.024;2023-06-22T04:50:19;98470.47;;;19.95;77.42
72587;BME280;60621;49.576;11.024;2023-06-22T04:51:22;98458.75;;;19.89;77.32
72587;BME280;60621;49.576;11.024;2023-06-22T04:52:24;98449.59;;;19.87;77.47
72587;BME280;60621;49.576;11.024;2023-06-22T04:53:26;98453.94;;;19.81;77.74
72587;BME280;60621;49.576;11.024;2023-06-22T04:54:31;98456.34;;;19.75;77.95
72587;BME280;60621;49.576;11.024;2023-06-22T04:55:36;98452.50;;;19.76;78.25
72587;BME280;60621;49.576;11.024;2023-06-22T04:56:39;98460.09;;;19.78;77.92
72587;BME280;60621;49.576;11.024;2023-06-22T04:57:42;98461.97;;;19.81;77.92
72587;BME280;60621;49.576;11.024;2023-06-22T04:58:49;98472.53;;;19.88;77.92
72587;BME280;60621;49.576;11.024;2023-06-22T04:59:52;98468.22;;;19.94;77.57
72587;BME280;60621;49.576;11.024;2023-06-22T05:00:54;98471.28;;;19.92;77.93
72587;BME280;60621;49.576;11.024;2023-06-22T05:02:00;98473.47;;;19.98;77.92
72587;BME280;60621;49.576;11.024;2023-06-22T05:03:01;98465.94;;;19.92;77.70
72587;BME280;60621;49.576;11.024;2023-06-22T05:04:19;98465.06;;;19.99;77.40
72587;BME280;60621;49.576;11.024;2023-06-22T05:05:22;98460.03;;;20.01;77.08
72587;BME280;60621;49.576;11.024;2023-06-22T05:06:24;98458.38;;;20.07;77.08
72587;BME280;60621;49.576;11.024;2023-06-22T05:07:26;98460.97;;;20.11;76.99
72587;BME280;60621;49.576;11.024;2023-06-22T05:08:28;98464.47;;;20.08;77.21
72587;BME280;60621;49.576;11.024;2023-06-22T05:09:30;98467.34;;;20.17;77.02
72587;BME280;60621;49.576;11.024;2023-06-22T05:10:33;98481.78;;;20.23;77.04
72587;BME280;60621;49.576;11.024;2023-06-22T05:11:34;98475.53;;;20.30;76.53
72587;BME280;60621;49.576;11.024;2023-06-22T05:12:36;98472.16;;;20.26;77.25
72587;BME280;60621;49.576;11.024;2023-06-22T05:13:38;98470.72;;;20.21;76.68
72587;BME280;60621;49.576;11.024;2023-06-22T05:14:40;98466.13;;;20.21;76.40
72587;BME280;60621;49.576;11.024;2023-06-22T05:15:41;98466.78;;;20.26;76.14
72587;BME280;60621;49.576;11.024;2023-06-22T05:16:44;98463.09;;;20.19;76.63
72587;BME280;60621;49.576;11.024;2023-06-22T05:17:46;98461.31;;;20.33;76.17
72587;BME280;60621;49.576;11.024;2023-06-22T05:18:47;98459.38;;;20.33;76.29
72587;BME280;60621;49.576;11.024;2023-06-22T05:19:49;98452.53;;;20.32;76.35
72587;BME280;60621;49.576;11.024;2023-06-22T05:20:51;98463.56;;;20.34;76.35
72587;BME280;60621;49.576;11.024;2023-06-22T05:21:53;98463.88;;;20.36;76.13
72587;BME280;60621;49.576;11.024;2023-06-22T05:22:54;98456.03;;;20.45;75.91
72587;BME280;60621;49.576;11.024;2023-06-22T05:23:56;98462.25;;;20.42;76.10
72587;BME280;60621;49.576;11.024;2023-06-22T05:25:01;98459.03;;;20.51;75.99
72587;BME280;60621;49.576;11.024;2023-06-22T05:26:03;98453.81;;;20.60;75.51
72587;BME280;60621;49.576;11.024;2023-06-22T05:27:05;98455.69;;;20.63;75.76
72587;BME280;60621;49.576;11.024;2023-06-22T05:28:06;98451.41;;;20.66;75.94
72587;BME280;60621;49.576;11.024;2023-06-22T05:29:12;98444.53;;;20.65;75.51
72587;BME280;60621;49.576;11.024;2023-06-22T05:30:14;98444.81;;;20.70;75.60
72587;BME280;60621;49.576;11.024;2023-06-22T05:31:19;98444.97;;;20.80;75.43
72587;BME280;60621;49.576;11.024;2023-06-22T05:32:21;98447.56;;;20.83;75.51
72587;BME280;60621;49.576;11.024;2023-06-22T05:33:23;98453.94;;;20.89;75.18